Time;durP1;ratioP1;P1;durP2;ratioP2;P2;SDS_P1;SDS_P2;PMS_P1;PMS_P2;Temp;Humidity;BMP_temperature;BMP_pressure;BME280_temperature;BME280_humidity;BME280_pressure;Samples;Min_cycle;Max_cycle;Signal;HPM_P1;HPM_P2
2023/10/28 00:02:02;;;;;;;31.40;14.05;;;;;;;;;;5041923;28;20033;-64
2023/10/28 00:04:28;;;;;;;30.63;14.35;;;;;;;;;;5042776;28;20076;-64
2023/10/28 00:06:54;;;;;;;33.10;15.07;;;;;;;;;;5042691;28;20293;-64
2023/10/28 00:09:20;;;;;;;34.17;16.17;;;;;;;;;;5042684;28;20454;-64
2023/10/28 00:11:46;;;;;;;30.60;14.85;;;;;;;;;;5042675;28;20081;-64
2023/10/28 00:14:14;;;;;;;34.58;15.25;;;;;;;;;;5042192;28;20083;-64
2023/10/28 00:16:40;;;;;;;32.20;14.97;;;;;;;;;;5041975;28;20114;-64
2023/10/28 00:19:07;;;;;;;36.05;15.98;;;;;;;;;;5042044;28;20311;-64
2023/10/28 00:21:34;;;;;;;34.88;16.20;;;;;;;;;;5042368;28;20388;-64
2023/10/28 00:24:01;;;;;;;42.70;17.65;;;;;;;;;;5042361;28;20048;-65
2023/10/28 00:26:28;;;;;;;32.60;15.93;;;;;;;;;;5041625;28;20127;-64
2023/10/28 00:28:54;;;;;;;38.03;16.40;;;;;;;;;;5041393;28;20083;-64
2023/10/28 00:31:19;;;;;;;34.45;16.42;;;;;;;;;;5041247;28;20068;-64
2023/10/28 00:33:46;;;;;;;33.67;16.23;;;;;;;;;;5042478;28;20520;-65
2023/10/28 00:36:12;;;;;;;34.83;15.70;;;;;;;;;;5041872;28;20534;-64
2023/10/28 00:38:39;;;;;;;31.60;16.02;;;;;;;;;;5042253;28;20052;-64
2023/10/28 00:41:05;;;;;;;42.25;16.42;;;;;;;;;;5041597;28;20119;-64
2023/10/28 00:43:32;;;;;;;40.00;17.70;;;;;;;;;;5040595;28;20558;-65
2023/10/28 00:45:59;;;;;;;36.63;16.50;;;;;;;;;;5041459;28;20547;-65
2023/10/28 00:48:26;;;;;;;35.58;17.42;;;;;;;;;;5041697;28;20052;-65
2023/10/28 00:50:54;;;;;;;36.30;17.55;;;;;;;;;;5040460;28;20048;-65
2023/10/28 00:53:20;;;;;;;;;;;;;;;;;;5042776;28;20040;-65
2023/10/28 00:55:46;;;;;;;37.17;16.27;;;;;;;;;;5041845;28;20324;-65
2023/10/28 00:58:12;;;;;;;34.53;15.30;;;;;;;;;;5041682;28;20033;-65
2023/10/28 01:00:38;;;;;;;35.20;16.00;;;;;;;;;;5041458;28;20102;-64
2023/10/28 01:03:04;;;;;;;45.70;17.38;;;;;;;;;;5040723;28;20604;-64
2023/10/28 01:05:33;;;;;;;34.08;16.75;;;;;;;;;;5041315;28;20431;-64
2023/10/28 01:07:59;;;;;;;;;;;;;;;;;;5042254;28;20124;-65
2023/10/28 01:10:35;;;;;;;37.22;16.10;;;;;;;;;;5041577;28;20004;-64
2023/10/28 01:13:04;;;;;;;33.85;15.32;;;;;;;;;;5119133;22;20434;-64
2023/10/28 01:15:30;;;;;;;38.05;15.15;;;;;;;;;;5041693;28;20149;-65
2023/10/28 01:17:59;;;;;;;35.45;15.73;;;;;;;;;;5040190;28;20080;-64
2023/10/28 01:20:25;;;;;;;33.70;15.25;;;;;;;;;;5041522;28;20184;-64
2023/10/28 01:22:51;;;;;;;37.47;15.73;;;;;;;;;;5022157;28;20497;-65
2023/10/28 01:25:18;;;;;;;39.10;17.50;;;;;;;;;;5006920;28;20044;-65
2023/10/28 01:27:44;;;;;;;33.17;14.93;;;;;;;;;;5040794;28;20045;-65
2023/10/28 01:30:14;;;;;;;30.00;14.32;;;;;;;;;;5040810;28;20413;-65
2023/10/28 01:32:44;;;;;;;30.00;14.82;;;;;;;;;;5032990;28;20041;-64
2023/10/28 01:35:10;;;;;;;34.28;16.10;;;;;;;;;;5023276;28;20056;-65
2023/10/28 01:37:37;;;;;;;39.13;16.13;;;;;;;;;;5040865;28;20033;-64
2023/10/28 01:40:09;;;;;;;32.08;14.65;;;;;;;;;;5041163;28;20079;-65
2023/10/28 01:42:35;;;;;;;33.00;15.30;;;;;;;;;;5041315;28;20120;-65
2023/10/28 01:45:01;;;;;;;33.88;15.40;;;;;;;;;;5041140;28;20045;-65
2023/10/28 01:47:28;;;;;;;31.77;15.27;;;;;;;;;;5022751;28;20080;-65
2023/10/28 01:49:54;;;;;;;31.45;14.98;;;;;;;;;;5041329;28;20060;-65
2023/10/28 01:52:21;;;;;;;34.53;16.02;;;;;;;;;;5041316;28;20052;-64
2023/10/28 01:54:47;;;;;;;35.92;16.00;;;;;;;;;;5040597;28;20128;-65
2023/10/28 01:57:13;;;;;;;32.97;15.05;;;;;;;;;;5040989;28;20052;-65
2023/10/28 01:59:39;;;;;;;34.25;14.70;;;;;;;;;;5041149;28;20045;-65
2023/10/28 02:02:07;;;;;;;34.10;16.90;;;;;;;;;;5041032;28;20057;-65
2023/10/28 02:04:33;;;;;;;33.50;15.13;;;;;;;;;;5044750;28;20049;-65
2023/10/28 02:07:00;;;;;;;30.05;14.68;;;;;;;;;;5044779;28;20089;-65
2023/10/28 02:09:29;;;;;;;32.65;15.05;;;;;;;;;;5044779;28;20080;-65
2023/10/28 02:11:55;;;;;;;27.30;14.77;;;;;;;;;;5044757;28;20150;-64
2023/10/28 02:14:23;;;;;;;33.17;15.23;;;;;;;;;;5044557;28;20049;-64
2023/10/28 02:16:49;;;;;;;34.45;15.40;;;;;;;;;;5043731;28;20828;-64
2023/10/28 02:19:17;;;;;;;29.55;14.30;;;;;;;;;;5044388;28;20033;-65
2023/10/28 02:21:44;;;;;;;28.92;13.70;;;;;;;;;;5044767;28;20041;-65
2023/10/28 02:24:10;;;;;;;37.42;14.65;;;;;;;;;;5044319;28;20087;-65
2023/10/28 02:26:36;;;;;;;38.38;15.00;;;;;;;;;;5044250;28;20053;-64
2023/10/28 02:29:02;;;;;;;30.00;13.23;;;;;;;;;;5043702;28;20049;-65
2023/10/28 02:31:28;;;;;;;30.65;14.02;;;;;;;;;;5043600;28;20037;-64
2023/10/28 02:33:54;;;;;;;30.05;13.23;;;;;;;;;;5044315;28;20090;-64
2023/10/28 02:36:20;;;;;;;26.98;12.77;;;;;;;;;;5044345;28;20100;-64
2023/10/28 02:38:46;;;;;;;31.98;13.15;;;;;;;;;;5044291;28;20091;-65
2023/10/28 02:41:14;;;;;;;29.00;12.82;;;;;;;;;;5044050;28;20123;-65
2023/10/28 02:43:40;;;;;;;24.88;12.80;;;;;;;;;;5043917;28;20559;-64
2023/10/28 02:46:07;;;;;;;27.13;12.07;;;;;;;;;;5043307;28;20140;-64
2023/10/28 02:48:33;;;;;;;24.40;12.48;;;;;;;;;;5043905;28;20072;-64
2023/10/28 02:51:04;;;;;;;27.52;12.05;;;;;;;;;;5026971;28;20059;-64
2023/10/28 02:53:30;;;;;;;29.85;12.73;;;;;;;;;;5044162;28;20076;-64
2023/10/28 02:55:56;;;;;;;24.77;11.73;;;;;;;;;;5044007;28;20076;-65
2023/10/28 02:58:22;;;;;;;29.20;11.45;;;;;;;;;;5043729;28;20405;-64
2023/10/28 03:00:48;;;;;;;27.05;12.00;;;;;;;;;;5042983;28;20128;-65
2023/10/28 03:03:14;;;;;;;29.38;12.50;;;;;;;;;;5043495;28;20132;-64
2023/10/28 03:05:40;;;;;;;24.73;11.75;;;;;;;;;;5043679;28;20445;-65
2023/10/28 03:08:07;;;;;;;24.83;11.85;;;;;;;;;;5043670;28;20041;-65
2023/10/28 03:10:33;;;;;;;28.95;11.70;;;;;;;;;;5025507;28;20106;-65
2023/10/28 03:12:59;;;;;;;25.45;11.18;;;;;;;;;;5043641;28;20045;-65
2023/10/28 03:15:25;;;;;;;21.77;10.68;;;;;;;;;;5042486;28;20387;-65
2023/10/28 03:17:51;;;;;;;29.17;10.90;;;;;;;;;;5042566;28;20033;-65
2023/10/28 03:20:19;;;;;;;26.98;11.30;;;;;;;;;;5043374;28;20088;-65
2023/10/28 03:22:45;;;;;;;26.73;10.13;;;;;;;;;;5043486;28;20125;-65
2023/10/28 03:25:11;;;;;;;22.42;11.15;;;;;;;;;;5043567;28;20212;-65
2023/10/28 03:27:37;;;;;;;23.77;10.35;;;;;;;;;;5043327;28;20492;-64
2023/10/28 03:30:03;;;;;;;31.23;11.57;;;;;;;;;;5025448;28;20053;-65
2023/10/28 03:32:29;;;;;;;24.35;10.73;;;;;;;;;;5042941;28;20056;-65
2023/10/28 03:34:55;;;;;;;24.30;10.75;;;;;;;;;;5043067;28;20108;-64
2023/10/28 03:37:21;;;;;;;25.77;10.88;;;;;;;;;;5043240;28;20611;-64
2023/10/28 03:39:47;;;;;;;27.08;10.25;;;;;;;;;;5042949;28;20539;-64
2023/10/28 03:42:13;;;;;;;23.58;10.45;;;;;;;;;;5042993;28;20045;-65
2023/10/28 03:44:39;;;;;;;25.33;9.85;;;;;;;;;;5024627;28;20060;-65
2023/10/28 03:47:06;;;;;;;23.17;10.07;;;;;;;;;;5024301;28;20461;-64
2023/10/28 03:49:33;;;;;;;26.67;10.60;;;;;;;;;;5042952;28;20057;-65
2023/10/28 03:51:59;;;;;;;23.05;9.63;;;;;;;;;;5042860;28;20048;-64
2023/10/28 03:54:25;;;;;;;18.55;10.15;;;;;;;;;;5042600;28;20055;-64
2023/10/28 03:56:51;;;;;;;22.98;10.20;;;;;;;;;;5042234;28;20037;-65
2023/10/28 03:59:17;;;;;;;21.77;9.95;;;;;;;;;;5042531;28;20502;-65
2023/10/28 04:01:44;;;;;;;19.33;9.25;;;;;;;;;;5041775;28;20049;-65
2023/10/28 04:04:10;;;;;;;27.23;10.43;;;;;;;;;;5042442;28;20045;-65
2023/10/28 04:06:36;;;;;;;22.77;10.13;;;;;;;;;;5024650;28;20698;-65
2023/10/28 04:09:03;;;;;;;29.10;11.05;;;;;;;;;;5042795;28;20037;-65
2023/10/28 04:11:29;;;;;;;21.27;9.95;;;;;;;;;;5042450;28;20047;-65
2023/10/28 04:13:55;;;;;;;19.77;9.52;;;;;;;;;;5042367;28;20063;-65
2023/10/28 04:16:21;;;;;;;24.75;9.77;;;;;;;;;;5023801;28;20041;-64
2023/10/28 04:18:48;;;;;;;19.92;9.18;;;;;;;;;;5024171;28;20512;-65
2023/10/28 04:21:14;;;;;;;23.92;10.95;;;;;;;;;;5042260;28;20045;-64
2023/10/28 04:23:41;;;;;;;21.60;10.57;;;;;;;;;;5042380;28;20052;-64
2023/10/28 04:26:07;;;;;;;25.10;9.95;;;;;;;;;;5024722;28;20049;-64
2023/10/28 04:28:33;;;;;;;24.95;11.32;;;;;;;;;;5042161;28;20049;-64
2023/10/28 04:30:59;;;;;;;28.02;10.85;;;;;;;;;;5040999;28;20039;-64
2023/10/28 04:33:26;;;;;;;23.75;9.80;;;;;;;;;;5042109;28;20116;-64
2023/10/28 04:35:52;;;;;;;32.40;11.18;;;;;;;;;;5042077;28;20091;-64
2023/10/28 04:38:18;;;;;;;25.30;11.10;;;;;;;;;;5041698;28;20053;-64
2023/10/28 04:40:45;;;;;;;31.05;11.32;;;;;;;;;;5041869;28;20044;-64
2023/10/28 04:43:11;;;;;;;26.33;11.30;;;;;;;;;;5041706;28;20049;-64
2023/10/28 04:45:41;;;;;;;26.65;11.00;;;;;;;;;;5023586;28;20063;-64
2023/10/28 04:48:08;;;;;;;24.30;10.57;;;;;;;;;;5024223;28;20053;-64
2023/10/28 04:50:34;;;;;;;30.90;11.48;;;;;;;;;;5042174;28;20084;-64
2023/10/28 04:53:01;;;;;;;32.92;11.02;;;;;;;;;;5041611;28;20076;-64
2023/10/28 04:55:27;;;;;;;36.22;11.45;;;;;;;;;;5041983;28;20059;-65
2023/10/28 04:57:53;;;;;;;34.63;13.57;;;;;;;;;;5042444;28;20068;-65
2023/10/28 05:00:19;;;;;;;23.27;11.10;;;;;;;;;;5040955;28;20045;-65
2023/10/28 05:02:45;;;;;;;34.88;11.80;;;;;;;;;;5023838;28;20060;-64
2023/10/28 05:05:13;;;;;;;28.48;11.90;;;;;;;;;;5041570;28;20033;-65
2023/10/28 05:07:39;;;;;;;27.00;12.02;;;;;;;;;;5042145;28;20045;-65
2023/10/28 05:10:05;;;;;;;30.85;11.90;;;;;;;;;;5041741;28;20055;-65
2023/10/28 05:12:32;;;;;;;27.05;12.02;;;;;;;;;;5023601;28;20041;-64
2023/10/28 05:14:59;;;;;;;29.85;11.52;;;;;;;;;;5041975;28;20080;-65
2023/10/28 05:17:25;;;;;;;30.85;11.40;;;;;;;;;;5022811;28;20048;-65
2023/10/28 05:19:51;;;;;;;28.33;10.40;;;;;;;;;;5041200;28;20040;-65
2023/10/28 05:22:18;;;;;;;24.05;10.85;;;;;;;;;;5041287;28;20072;-65
2023/10/28 05:24:48;;;;;;;27.38;11.23;;;;;;;;;;5036415;28;20047;-67
2023/10/28 05:27:14;;;;;;;24.55;10.35;;;;;;;;;;5036249;28;20056;-63
2023/10/28 05:29:40;;;;;;;27.75;10.88;;;;;;;;;;5040243;28;20041;-63
2023/10/28 05:32:06;;;;;;;29.10;11.05;;;;;;;;;;5040288;28;20590;-63
2023/10/28 05:34:32;;;;;;;23.02;10.50;;;;;;;;;;5040514;28;20069;-64
2023/10/28 05:36:58;;;;;;;28.02;10.63;;;;;;;;;;5040790;28;20075;-63
2023/10/28 05:39:24;;;;;;;28.63;11.05;;;;;;;;;;5044847;28;20604;-64
2023/10/28 05:41:50;;;;;;;27.52;10.27;;;;;;;;;;5044854;28;20055;-65
2023/10/28 05:44:17;;;;;;;24.23;10.38;;;;;;;;;;5045023;28;20313;-65
2023/10/28 05:46:44;;;;;;;24.45;10.50;;;;;;;;;;5043438;28;20125;-65
2023/10/28 05:49:12;;;;;;;21.60;10.10;;;;;;;;;;5040545;28;20080;-65
2023/10/28 05:51:38;;;;;;;19.45;9.63;;;;;;;;;;5044630;28;20041;-65
2023/10/28 05:54:04;;;;;;;17.20;9.70;;;;;;;;;;5026993;28;20111;-66
2023/10/28 05:56:30;;;;;;;22.83;9.70;;;;;;;;;;5044060;28;20676;-66
2023/10/28 05:58:58;;;;;;;32.58;10.57;;;;;;;;;;5044544;28;20073;-65
2023/10/28 06:01:25;;;;;;;19.10;9.97;;;;;;;;;;5043783;28;20657;-66
2023/10/28 06:03:51;;;;;;;25.55;9.88;;;;;;;;;;5040367;28;20041;-65
2023/10/28 06:06:17;;;;;;;20.52;9.95;;;;;;;;;;5036420;28;20057;-66
2023/10/28 06:08:43;;;;;;;26.08;9.40;;;;;;;;;;5044598;28;20045;-65
2023/10/28 06:11:12;;;;;;;15.55;8.38;;;;;;;;;;5045383;28;20033;-66
2023/10/28 06:13:38;;;;;;;17.65;9.07;;;;;;;;;;5044922;28;20053;-65
2023/10/28 06:16:04;;;;;;;19.73;8.52;;;;;;;;;;5044398;28;20056;-66
2023/10/28 06:18:30;;;;;;;17.55;8.63;;;;;;;;;;5044150;28;20052;-66
2023/10/28 06:20:56;;;;;;;19.35;8.82;;;;;;;;;;5025260;28;20049;-65
2023/10/28 06:23:22;;;;;;;19.38;8.07;;;;;;;;;;5025926;28;20045;-66
2023/10/28 06:25:48;;;;;;;19.33;8.70;;;;;;;;;;5043665;28;20041;-66
2023/10/28 06:28:15;;;;;;;23.85;8.10;;;;;;;;;;5043259;28;20505;-66
2023/10/28 06:30:48;;;;;;;17.13;8.30;;;;;;;;;;5042988;28;20087;-65
2023/10/28 06:33:14;;;;;;;17.25;7.22;;;;;;;;;;5044310;28;20045;-66
2023/10/28 06:35:40;;;;;;;20.42;7.80;;;;;;;;;;5027066;28;20060;-65
2023/10/28 06:38:06;;;;;;;19.08;7.18;;;;;;;;;;5044459;28;20128;-66
2023/10/28 06:40:32;;;;;;;19.23;7.28;;;;;;;;;;5044549;28;20092;-65
2023/10/28 06:42:58;;;;;;;14.05;7.30;;;;;;;;;;5035284;28;20079;-65
2023/10/28 06:45:24;;;;;;;15.00;6.75;;;;;;;;;;5043836;28;20045;-66
2023/10/28 06:47:50;;;;;;;17.58;7.13;;;;;;;;;;5043863;28;20136;-66
2023/10/28 06:50:19;;;;;;;18.75;7.45;;;;;;;;;;5029515;28;20118;-66
2023/10/28 06:52:48;;;;;;;15.60;6.90;;;;;;;;;;5044554;28;20137;-66
2023/10/28 06:55:14;;;;;;;;;;;;;;;;;;5042195;28;20086;-65
2023/10/28 06:57:41;;;;;;;14.45;6.65;;;;;;;;;;5044281;28;20316;-66
2023/10/28 07:00:12;;;;;;;14.80;6.22;;;;;;;;;;5042930;28;20079;-65
2023/10/28 07:02:38;;;;;;;20.02;7.07;;;;;;;;;;5038035;28;20102;-65
2023/10/28 07:05:04;;;;;;;16.50;6.45;;;;;;;;;;5041324;28;20061;-65
2023/10/28 07:07:30;;;;;;;16.98;6.55;;;;;;;;;;5041505;28;20041;-67
2023/10/28 07:09:57;;;;;;;14.82;6.00;;;;;;;;;;5036287;28;20052;-65
2023/10/28 07:12:23;;;;;;;13.80;5.97;;;;;;;;;;5018644;28;20060;-64
2023/10/28 07:14:49;;;;;;;11.48;5.47;;;;;;;;;;5040566;28;20092;-64
2023/10/28 07:17:15;;;;;;;11.75;5.30;;;;;;;;;;5022929;28;20080;-64
2023/10/28 07:19:42;;;;;;;11.40;5.40;;;;;;;;;;5040944;28;20041;-65
2023/10/28 07:22:08;;;;;;;16.30;5.45;;;;;;;;;;5041050;28;20095;-64
2023/10/28 07:24:34;;;;;;;12.35;5.70;;;;;;;;;;5040820;28;20096;-64
2023/10/28 07:27:04;;;;;;;10.10;5.10;;;;;;;;;;5041094;28;20117;-65
2023/10/28 07:29:30;;;;;;;11.38;5.13;;;;;;;;;;5041007;28;20088;-65
2023/10/28 07:31:57;;;;;;;10.93;5.30;;;;;;;;;;5034398;28;20036;-64
2023/10/28 07:34:23;;;;;;;10.43;4.68;;;;;;;;;;5022398;28;20413;-65
2023/10/28 07:36:49;;;;;;;20.55;4.75;;;;;;;;;;5027930;28;20041;-64
2023/10/28 07:39:15;;;;;;;16.35;5.00;;;;;;;;;;5040796;28;20067;-64
2023/10/28 07:41:42;;;;;;;12.88;4.75;;;;;;;;;;5040911;28;20044;-64
2023/10/28 07:44:08;;;;;;;11.35;5.00;;;;;;;;;;5040054;28;20053;-64
2023/10/28 07:46:34;;;;;;;10.90;4.72;;;;;;;;;;5039393;28;20102;-65
2023/10/28 07:49:00;;;;;;;10.18;4.47;;;;;;;;;;5040102;28;20049;-64
2023/10/28 07:51:26;;;;;;;12.65;4.60;;;;;;;;;;5040201;28;20051;-65
2023/10/28 07:53:52;;;;;;;10.40;4.78;;;;;;;;;;5022845;28;20085;-65
2023/10/28 07:56:19;;;;;;;9.48;4.57;;;;;;;;;;5022122;28;20704;-65
2023/10/28 07:58:45;;;;;;;20.30;5.18;;;;;;;;;;5039482;28;20045;-65
2023/10/28 08:01:14;;;;;;;11.38;4.28;;;;;;;;;;5038968;28;20088;-65
2023/10/28 08:03:43;;;;;;;10.40;4.35;;;;;;;;;;5039925;28;20053;-65
2023/10/28 08:06:10;;;;;;;10.38;4.10;;;;;;;;;;5022392;28;20056;-64
2023/10/28 08:08:36;;;;;;;9.75;5.35;;;;;;;;;;5039749;28;20051;-64
2023/10/28 08:11:03;;;;;;;7.93;4.40;;;;;;;;;;5039537;28;20072;-63
2023/10/28 08:13:29;;;;;;;12.90;6.97;;;;;;;;;;5039588;28;20064;-63
2023/10/28 08:15:55;;;;;;;11.55;4.10;;;;;;;;;;5021173;28;20048;-64
2023/10/28 08:18:21;;;;;;;9.30;4.25;;;;;;;;;;5040263;28;20051;-64
2023/10/28 08:20:47;;;;;;;8.18;3.70;;;;;;;;;;5014675;28;20053;-64
2023/10/28 08:23:13;;;;;;;11.25;3.97;;;;;;;;;;5039285;28;20181;-63
2023/10/28 08:25:39;;;;;;;5.80;4.03;;;;;;;;;;5036445;28;20045;-64
2023/10/28 08:28:05;;;;;;;8.90;3.53;;;;;;;;;;5039275;28;20047;-63
2023/10/28 08:30:31;;;;;;;9.60;3.50;;;;;;;;;;5039059;28;20053;-64
2023/10/28 08:32:58;;;;;;;9.13;3.40;;;;;;;;;;4998372;28;20053;-65
2023/10/28 08:35:28;;;;;;;5.72;3.45;;;;;;;;;;5022731;28;20499;-65
2023/10/28 08:37:54;;;;;;;9.88;3.60;;;;;;;;;;5026636;28;20052;-65
2023/10/28 08:40:20;;;;;;;7.55;3.40;;;;;;;;;;5039661;28;20842;-65
2023/10/28 08:42:46;;;;;;;9.32;3.70;;;;;;;;;;5039832;28;20044;-65
2023/10/28 08:45:14;;;;;;;7.13;4.13;;;;;;;;;;5038585;28;20041;-65
2023/10/28 08:47:41;;;;;;;8.43;3.33;;;;;;;;;;5039414;28;20041;-65
2023/10/28 08:50:07;;;;;;;6.18;3.10;;;;;;;;;;5039549;28;20057;-65
2023/10/28 08:52:36;;;;;;;8.70;3.53;;;;;;;;;;5039120;28;20572;-66
2023/10/28 08:55:03;;;;;;;12.60;4.15;;;;;;;;;;5038413;28;20037;-65
2023/10/28 08:57:30;;;;;;;10.00;3.15;;;;;;;;;;5039379;28;20045;-65
2023/10/28 08:59:56;;;;;;;6.60;3.15;;;;;;;;;;5037935;28;20126;-65
2023/10/28 09:02:24;;;;;;;9.57;4.45;;;;;;;;;;5039903;28;20053;-66
2023/10/28 09:04:52;;;;;;;9.13;3.60;;;;;;;;;;5038983;28;20063;-62
2023/10/28 09:07:18;;;;;;;7.57;4.03;;;;;;;;;;5039433;28;20049;-62
2023/10/28 09:09:44;;;;;;;8.02;3.58;;;;;;;;;;5039156;28;20311;-63
2023/10/28 09:12:10;;;;;;;8.40;3.83;;;;;;;;;;5037008;28;20061;-63
2023/10/28 09:14:37;;;;;;;8.63;3.67;;;;;;;;;;5042099;28;20464;-63
2023/10/28 09:17:03;;;;;;;8.25;3.30;;;;;;;;;;5040541;28;20129;-62
2023/10/28 09:19:30;;;;;;;7.97;3.63;;;;;;;;;;5021156;28;20128;-62
2023/10/28 09:21:56;;;;;;;15.52;3.83;;;;;;;;;;5039178;28;20045;-63
2023/10/28 09:24:23;;;;;;;8.45;3.80;;;;;;;;;;5017112;28;20095;-63
2023/10/28 09:26:52;;;;;;;9.80;3.55;;;;;;;;;;5037967;28;20882;-63
2023/10/28 09:29:25;;;;;;;11.13;4.65;;;;;;;;;;5040052;28;20040;-63
2023/10/28 09:31:51;;;;;;;9.65;6.68;;;;;;;;;;5034566;28;20045;-63
2023/10/28 09:34:17;;;;;;;12.82;3.90;;;;;;;;;;5037835;28;20045;-63
2023/10/28 09:36:43;;;;;;;12.88;3.80;;;;;;;;;;5040473;28;20037;-63
2023/10/28 09:39:10;;;;;;;10.75;4.47;;;;;;;;;;5036666;28;20072;-63
2023/10/28 09:41:38;;;;;;;11.05;4.00;;;;;;;;;;5041241;28;20041;-63
2023/10/28 09:44:05;;;;;;;12.10;3.78;;;;;;;;;;5041052;28;20052;-63
2023/10/28 09:46:35;;;;;;;6.50;3.60;;;;;;;;;;5019667;28;20044;-63
2023/10/28 09:49:03;;;;;;;8.82;3.63;;;;;;;;;;5040765;28;20068;-63
2023/10/28 09:51:31;;;;;;;12.52;5.68;;;;;;;;;;5042629;28;20080;-63
2023/10/28 09:54:04;;;;;;;10.63;3.58;;;;;;;;;;5043364;28;20040;-63
2023/10/28 09:56:37;;;;;;;11.07;3.53;;;;;;;;;;5043271;28;20059;-63
2023/10/28 09:59:05;;;;;;;6.13;3.08;;;;;;;;;;5043204;28;20045;-63
2023/10/28 10:01:37;;;;;;;10.25;3.40;;;;;;;;;;5040253;28;20070;-63
2023/10/28 10:04:22;;;;;;;9.95;3.83;;;;;;;;;;5042295;28;20056;-63
2023/10/28 10:06:48;;;;;;;13.63;3.80;;;;;;;;;;5042460;28;20056;-63
2023/10/28 10:09:18;;;;;;;6.80;3.70;;;;;;;;;;5041702;28;20088;-63
2023/10/28 10:11:45;;;;;;;9.77;3.13;;;;;;;;;;5041293;28;20048;-63
2023/10/28 10:14:12;;;;;;;13.88;3.58;;;;;;;;;;5042320;28;20067;-63
2023/10/28 10:16:55;;;;;;;10.40;7.00;;;;;;;;;;5041695;28;20056;-63
2023/10/28 10:19:24;;;;;;;11.93;3.92;;;;;;;;;;5034668;28;20045;-63
2023/10/28 10:21:51;;;;;;;;;;;;;;;;;;5041920;28;20073;-63
2023/10/28 10:24:19;;;;;;;7.10;3.33;;;;;;;;;;5039369;28;19927;-63
2023/10/28 10:26:53;;;;;;;9.45;3.55;;;;;;;;;;5030974;28;20045;-63
2023/10/28 10:29:19;;;;;;;10.00;3.85;;;;;;;;;;5036210;28;20047;-63
2023/10/28 10:31:49;;;;;;;9.45;3.30;;;;;;;;;;5031417;28;20050;-62
2023/10/28 10:34:30;;;;;;;10.10;3.40;;;;;;;;;;5040677;28;20041;-63
2023/10/28 10:36:56;;;;;;;7.30;3.42;;;;;;;;;;5039722;28;20126;-62
2023/10/28 10:39:22;;;;;;;13.18;3.55;;;;;;;;;;5042252;28;20079;-63
2023/10/28 10:41:52;;;;;;;8.02;3.30;;;;;;;;;;5042251;28;20477;-63
2023/10/28 10:44:25;;;;;;;8.98;3.05;;;;;;;;;;5036611;28;20049;-63
2023/10/28 10:46:56;;;;;;;8.68;3.08;;;;;;;;;;5041570;28;20087;-62
2023/10/28 10:49:22;;;;;;;9.48;2.78;;;;;;;;;;5041243;28;20053;-63
2023/10/28 10:51:49;;;;;;;9.93;3.00;;;;;;;;;;5040923;28;20078;-63
2023/10/28 10:54:17;;;;;;;7.40;3.03;;;;;;;;;;5041105;28;20091;-63
2023/10/28 10:56:43;;;;;;;7.47;2.72;;;;;;;;;;5040654;28;20041;-63
2023/10/28 10:59:09;;;;;;;6.28;2.85;;;;;;;;;;5040217;28;20057;-63
2023/10/28 11:01:35;;;;;;;8.80;2.95;;;;;;;;;;5038783;28;20124;-63
2023/10/28 11:04:03;;;;;;;6.85;3.13;;;;;;;;;;5039895;28;20063;-63
2023/10/28 11:06:29;;;;;;;5.78;2.80;;;;;;;;;;5040800;28;20084;-64
2023/10/28 11:08:55;;;;;;;11.60;5.07;;;;;;;;;;5040500;28;20102;-64
2023/10/28 11:11:21;;;;;;;13.05;5.40;;;;;;;;;;5040249;28;20056;-63
2023/10/28 11:13:47;;;;;;;9.30;3.50;;;;;;;;;;5040328;28;20053;-62
2023/10/28 11:16:25;;;;;;;14.25;3.97;;;;;;;;;;5022769;28;20080;-69
2023/10/28 11:18:51;;;;;;;;;;;;;;;;;;5040871;28;20045;-67
2023/10/28 11:21:18;;;;;;;6.88;2.75;;;;;;;;;;5041319;28;20396;-66
2023/10/28 11:23:45;;;;;;;9.82;3.25;;;;;;;;;;5040549;28;20135;-66
2023/10/28 11:26:16;;;;;;;11.15;2.67;;;;;;;;;;5041194;28;20069;-66
2023/10/28 11:28:44;;;;;;;8.07;2.65;;;;;;;;;;5041004;28;20041;-66
2023/10/28 11:31:11;;;;;;;5.65;2.33;;;;;;;;;;5039133;28;20816;-66
2023/10/28 11:33:37;;;;;;;6.32;2.63;;;;;;;;;;5040548;28;20037;-66
2023/10/28 11:36:04;;;;;;;8.65;2.78;;;;;;;;;;5039738;28;20059;-67
2023/10/28 11:38:36;;;;;;;5.30;2.55;;;;;;;;;;5027998;28;20068;-66
2023/10/28 11:41:05;;;;;;;12.07;2.75;;;;;;;;;;5040636;28;20529;-67
2023/10/28 11:43:31;;;;;;;8.40;2.88;;;;;;;;;;5040858;28;20037;-67
2023/10/28 11:45:57;;;;;;;8.40;2.47;;;;;;;;;;5017622;28;20125;-67
2023/10/28 11:48:23;;;;;;;6.93;2.13;;;;;;;;;;5022524;28;20483;-67
2023/10/28 11:50:49;;;;;;;5.20;2.40;;;;;;;;;;5040127;28;20053;-67
2023/10/28 11:53:16;;;;;;;7.32;2.25;;;;;;;;;;5040211;28;20109;-67
2023/10/28 11:55:42;;;;;;;6.95;2.55;;;;;;;;;;5040777;28;20129;-67
2023/10/28 11:58:11;;;;;;;6.30;2.03;;;;;;;;;;5039924;28;20109;-67
2023/10/28 12:00:37;;;;;;;8.35;2.22;;;;;;;;;;5025833;28;20037;-67
2023/10/28 12:03:06;;;;;;;6.32;1.95;;;;;;;;;;5039020;28;20483;-67
2023/10/28 12:05:35;;;;;;;5.20;2.50;;;;;;;;;;5038669;28;20040;-67
2023/10/28 12:08:01;;;;;;;6.55;1.98;;;;;;;;;;5038930;28;20103;-67
2023/10/28 12:10:27;;;;;;;9.55;2.80;;;;;;;;;;5039301;28;20041;-67
2023/10/28 12:12:53;;;;;;;8.40;3.03;;;;;;;;;;5020999;28;20458;-67
2023/10/28 12:15:20;;;;;;;9.38;1.90;;;;;;;;;;5038952;28;20056;-67
2023/10/28 12:17:47;;;;;;;7.75;2.40;;;;;;;;;;5040204;28;20033;-67
2023/10/28 12:20:14;;;;;;;4.55;1.80;;;;;;;;;;5040371;28;20548;-67
2023/10/28 12:22:44;;;;;;;10.70;2.30;;;;;;;;;;5039626;28;20049;-68
2023/10/28 12:25:11;;;;;;;7.53;2.30;;;;;;;;;;5039497;28;20888;-67
2023/10/28 12:27:37;;;;;;;5.28;2.10;;;;;;;;;;5039800;28;20049;-67
2023/10/28 12:30:06;;;;;;;8.48;2.00;;;;;;;;;;5038775;28;20383;-68
2023/10/28 12:32:33;;;;;;;6.70;2.63;;;;;;;;;;5039624;28;20095;-68
2023/10/28 12:34:59;;;;;;;6.05;2.38;;;;;;;;;;5026092;28;20049;-67
2023/10/28 12:37:28;;;;;;;4.72;2.15;;;;;;;;;;5039991;28;20045;-67
2023/10/28 12:39:54;;;;;;;10.45;2.22;;;;;;;;;;5039688;28;20041;-67
2023/10/28 12:42:21;;;;;;;8.13;2.22;;;;;;;;;;5040052;28;20048;-67
2023/10/28 12:44:47;;;;;;;24.50;3.75;;;;;;;;;;5038803;28;20119;-67
2023/10/28 12:47:13;;;;;;;4.75;2.03;;;;;;;;;;5020466;28;20069;-67
2023/10/28 12:49:39;;;;;;;8.38;2.67;;;;;;;;;;5039525;28;20101;-67
2023/10/28 12:52:05;;;;;;;4.93;2.05;;;;;;;;;;5039414;28;20048;-69
2023/10/28 12:54:34;;;;;;;8.77;2.13;;;;;;;;;;5039347;28;20057;-69
2023/10/28 12:57:01;;;;;;;6.38;2.00;;;;;;;;;;5039293;28;20048;-69
2023/10/28 12:59:30;;;;;;;8.30;2.35;;;;;;;;;;5039323;28;20147;-69
2023/10/28 13:01:56;;;;;;;8.05;2.00;;;;;;;;;;5039912;28;20037;-69
2023/10/28 13:04:22;;;;;;;31.35;3.30;;;;;;;;;;5021277;28;20059;-69
2023/10/28 13:06:49;;;;;;;5.63;1.85;;;;;;;;;;5039754;28;20049;-69
2023/10/28 13:09:15;;;;;;;8.93;1.77;;;;;;;;;;5039086;28;20053;-69
2023/10/28 13:11:41;;;;;;;4.82;1.60;;;;;;;;;;5020870;28;20525;-69
2023/10/28 13:14:08;;;;;;;5.90;2.20;;;;;;;;;;5039006;28;20083;-69
2023/10/28 13:16:37;;;;;;;9.80;2.10;;;;;;;;;;5039108;28;20150;-69
2023/10/28 13:19:06;;;;;;;16.98;2.20;;;;;;;;;;5039479;28;20041;-69
2023/10/28 13:21:32;;;;;;;10.30;1.83;;;;;;;;;;5033456;28;20123;-69
2023/10/28 13:23:59;;;;;;;10.27;2.20;;;;;;;;;;5036315;28;20182;-70
2023/10/28 13:26:25;;;;;;;10.15;3.00;;;;;;;;;;5039938;28;20049;-70
2023/10/28 13:28:51;;;;;;;13.48;2.00;;;;;;;;;;5038765;28;20053;-70
2023/10/28 13:31:17;;;;;;;5.25;1.80;;;;;;;;;;5021035;28;20056;-70
2023/10/28 13:33:43;;;;;;;251.80;184.80;;;;;;;;;;5020812;28;20045;-70
2023/10/28 13:36:11;;;;;;;7.70;1.83;;;;;;;;;;5039096;28;20120;-70
2023/10/28 13:38:37;;;;;;;8.80;1.80;;;;;;;;;;5039693;28;20120;-69
2023/10/28 13:41:03;;;;;;;11.38;2.38;;;;;;;;;;5038922;28;20041;-70
2023/10/28 13:43:29;;;;;;;11.43;2.08;;;;;;;;;;5022066;28;20128;-69
2023/10/28 13:46:00;;;;;;;4.63;1.80;;;;;;;;;;5038312;28;20749;-67
2023/10/28 13:48:26;;;;;;;6.18;1.58;;;;;;;;;;5038221;28;20044;-68
2023/10/28 13:50:52;;;;;;;3.72;1.60;;;;;;;;;;5037516;28;20060;-68
2023/10/28 13:53:18;;;;;;;9.90;2.10;;;;;;;;;;5038090;28;20041;-69
2023/10/28 13:55:44;;;;;;;6.35;1.45;;;;;;;;;;5032923;28;20470;-69
2023/10/28 13:58:10;;;;;;;8.30;1.65;;;;;;;;;;5037572;28;20037;-69
2023/10/28 14:00:36;;;;;;;5.82;2.25;;;;;;;;;;5039497;28;20049;-69
2023/10/28 14:03:02;;;;;;;15.13;1.90;;;;;;;;;;5042279;28;20041;-67
2023/10/28 14:05:28;;;;;;;7.18;1.70;;;;;;;;;;5041797;28;20076;-69
2023/10/28 14:07:54;;;;;;;8.02;1.70;;;;;;;;;;5042756;28;20175;-70
2023/10/28 14:10:20;;;;;;;26.08;2.42;;;;;;;;;;5023609;28;20414;-69
2023/10/28 14:12:46;;;;;;;10.90;1.90;;;;;;;;;;5042066;28;20072;-69
2023/10/28 14:15:13;;;;;;;8.13;1.80;;;;;;;;;;5040827;28;20106;-68
2023/10/28 14:17:39;;;;;;;11.35;1.80;;;;;;;;;;5023151;28;20135;-69
2023/10/28 14:20:09;;;;;;;11.40;1.67;;;;;;;;;;5023139;28;20088;-68
2023/10/28 14:22:35;;;;;;;7.85;1.88;;;;;;;;;;5040530;28;20041;-68
2023/10/28 14:25:01;;;;;;;6.82;2.13;;;;;;;;;;5041475;28;20148;-68
2023/10/28 14:27:27;;;;;;;12.43;1.60;;;;;;;;;;5014275;28;20215;-68
2023/10/28 14:29:53;;;;;;;5.70;1.55;;;;;;;;;;5033021;28;20166;-69